Time;durP1;ratioP1;P1;durP2;ratioP2;P2;SDS_P1;SDS_P2;PMS_P1;PMS_P2;Temp;Humidity;BMP_temperature;BMP_pressure;BME280_temperature;BME280_humidity;BME280_pressure;Samples;Min_cycle;Max_cycle;Signal;HPM_P1;HPM_P2
2021/04/29 00:02:23;;;;;;;;;;;;;;;7.48;100.00;99633.03;5072916;28;19994;-69
2021/04/29 00:04:49;;;;;;;;;;;;;;;7.42;100.00;99629.03;5091165;28;19924;-69
2021/04/29 00:07:15;;;;;;;;;;;;;;;7.47;100.00;99625.94;5090270;28;20405;-69
2021/04/29 00:09:41;;;;;;;;;;;;;;;7.52;100.00;99629.09;5091440;28;19973;-69
2021/04/29 00:12:08;;;;;;;;;;;;;;;7.47;100.00;99629.50;5072859;28;19924;-69
2021/04/29 00:14:34;;;;;;;;;;;;;;;7.45;100.00;99634.16;5089701;28;19928;-69
2021/04/29 00:17:01;;;;;;;;;;;;;;;7.47;100.00;99624.09;5089439;28;19931;-69
2021/04/29 00:19:27;;;;;;;;;;;;;;;7.46;100.00;99624.25;5090983;28;19985;-69
2021/04/29 00:21:53;;;;;;;;;;;;;;;7.46;100.00;99627.78;5090957;28;19928;-69
2021/04/29 00:24:19;;;;;;;;;;;;;;;7.46;100.00;99625.09;5073441;28;19970;-69
2021/04/29 00:26:45;;;;;;;;;;;;;;;7.47;100.00;99623.22;5076623;28;19974;-69
2021/04/29 00:29:11;;;;;;;;;;;;;;;7.44;100.00;99621.69;5094970;28;19927;-69
2021/04/29 00:31:37;;;;;;;;;;;;;;;7.42;100.00;99622.78;5094828;28;19924;-69
2021/04/29 00:34:03;;;;;;;;;;;;;;;7.42;100.00;99628.19;5094752;28;19924;-69
2021/04/29 00:36:29;;;;;;;;;;;;;;;7.40;100.00;99624.75;5094653;28;19924;-69
2021/04/29 00:38:55;;;;;;;;;;;;;;;7.40;100.00;99619.34;5094900;28;19924;-69
2021/04/29 00:41:21;;;;;;;;;;;;;;;7.36;100.00;99621.44;5094980;28;19924;-69
2021/04/29 00:43:47;;;;;;;;;;;;;;;7.33;100.00;99616.31;5094861;28;20268;-69
2021/04/29 00:46:13;;;;;;;;;;;;;;;7.31;100.00;99616.47;5094482;28;19971;-69
2021/04/29 00:48:40;;;;;;;;;;;;;;;7.34;100.00;99618.03;5094636;28;19924;-69
2021/04/29 00:51:06;;;;;;;;;;;;;;;7.35;100.00;99614.34;5094496;28;20379;-69
2021/04/29 00:53:34;;;;;;;;;;;;;;;7.32;100.00;99617.31;5094437;28;20376;-69
2021/04/29 00:56:00;;;;;;;;;;;;;;;7.31;100.00;99615.59;5094102;28;19964;-69
2021/04/29 00:58:26;;;;;;;;;;;;;;;7.30;100.00;99608.50;5094443;28;19970;-69
2021/04/29 01:00:51;;;;;;;;;;;;;;;7.28;100.00;99611.31;5076361;28;19931;-69
2021/04/29 01:03:18;;;;;;;;;;;;;;;7.29;100.00;99625.66;5094142;28;19936;-69
2021/04/29 01:05:48;;;;;;;;;;;;;;;7.31;100.00;99616.47;5093940;28;19931;-69
2021/04/29 01:08:18;;;;;;;;;;;;;;;7.31;100.00;99608.34;5094239;28;19928;-69
2021/04/29 01:10:46;;;;;;;;;;;;;;;7.30;100.00;99609.34;5094175;28;19939;-69
2021/04/29 01:13:14;;;;;;;;;;;;;;;7.32;100.00;99615.47;5093931;28;19955;-69
2021/04/29 01:15:41;;;;;;;;;;;;;;;7.36;100.00;99618.75;5093953;28;19924;-69
2021/04/29 01:18:08;;;;;;;;;;;;;;;7.41;100.00;99619.22;5094031;28;19924;-69
2021/04/29 01:20:38;;;;;;;;;;;;;;;7.42;100.00;99620.09;5094164;28;19970;-69
2021/04/29 01:23:08;;;;;;;;;;;;;;;7.41;100.00;99615.66;5093648;28;20019;-69
2021/04/29 01:25:35;;;;;;;;;;;;;;;7.37;100.00;99612.38;5093434;28;20322;-69
2021/04/29 01:28:02;;;;;;;;;;;;;;;7.36;100.00;99614.22;5094100;28;19924;-69
2021/04/29 01:30:28;;;;;;;;;;;;;;;7.34;100.00;99607.25;5093923;28;20402;-69
2021/04/29 01:32:55;;;;;;;;;;;;;;;7.38;100.00;99611.38;5093638;28;20009;-69
2021/04/29 01:35:21;;;;;;;;;;;;;;;7.40;100.00;99611.25;5092822;28;20399;-69
2021/04/29 01:37:48;;;;;;;;;;;;;;;7.41;100.00;99605.72;5093830;28;20394;-69
2021/04/29 01:40:14;;;;;;;;;;;;;;;7.41;100.00;99602.16;5093623;28;19924;-69
2021/04/29 01:42:40;;;;;;;;;;;;;;;7.41;100.00;99599.47;5093462;28;19990;-69
2021/04/29 01:45:07;;;;;;;;;;;;;;;7.43;100.00;99594.78;5093226;28;20022;-69
2021/04/29 01:47:34;;;;;;;;;;;;;;;7.43;100.00;99592.94;5075445;28;19967;-69
2021/04/29 01:50:00;;;;;;;;;;;;;;;7.45;100.00;99596.34;5093576;28;19977;-69
2021/04/29 01:52:26;;;;;;;;;;;;;;;7.46;100.00;99592.69;5093235;28;19968;-69
2021/04/29 01:54:52;;;;;;;;;;;;;;;7.46;100.00;99589.97;5075308;28;20287;-69
2021/04/29 01:57:18;;;;;;;;;;;;;;;7.44;100.00;99583.88;5074802;28;19951;-69
2021/04/29 01:59:44;;;;;;;;;;;;;;;7.47;100.00;99583.59;5093388;28;19959;-69
2021/04/29 02:02:11;;;;;;;;;;;;;;;7.49;100.00;99580.75;5092973;28;20387;-69
2021/04/29 02:04:36;;;;;;;;;;;;;;;7.49;100.00;99573.50;5075194;28;19924;-69
2021/04/29 02:07:02;;;;;;;;;;;;;;;7.49;100.00;99576.19;5092990;28;19924;-69
2021/04/29 02:09:28;;;;;;;;;;;;;;;7.52;100.00;99570.56;5092732;28;20368;-69
2021/04/29 02:11:57;;;;;;;;;;;;;;;7.53;100.00;99568.69;5074868;28;19932;-69
2021/04/29 02:14:27;;;;;;;;;;;;;;;7.52;100.00;99575.97;5092687;28;19959;-69
2021/04/29 02:16:54;;;;;;;;;;;;;;;7.51;100.00;99568.84;5092563;28;20006;-69
2021/04/29 02:19:22;;;;;;;;;;;;;;;7.50;100.00;99563.56;5092817;28;19964;-69
2021/04/29 02:21:50;;;;;;;;;;;;;;;7.47;100.00;99556.59;5092638;28;19924;-69
2021/04/29 02:24:17;;;;;;;;;;;;;;;7.44;100.00;99554.16;5092787;28;20185;-69
2021/04/29 02:26:43;;;;;;;;;;;;;;;7.45;100.00;99547.75;5092623;28;19923;-69
2021/04/29 02:29:08;;;;;;;;;;;;;;;7.43;100.00;99540.78;5092564;28;20372;-69
2021/04/29 02:31:35;;;;;;;;;;;;;;;7.39;100.00;99537.50;5092441;28;19935;-69
2021/04/29 02:34:01;;;;;;;;;;;;;;;7.38;100.00;99531.25;5092534;28;19959;-69
2021/04/29 02:36:28;;;;;;;;;;;;;;;7.33;100.00;99533.47;5092201;28;19959;-69
2021/04/29 02:38:55;;;;;;;;;;;;;;;7.31;100.00;99531.91;5074403;28;19951;-69
2021/04/29 02:41:21;;;;;;;;;;;;;;;7.29;100.00;99528.50;5092264;28;19934;-69
2021/04/29 02:43:47;;;;;;;;;;;;;;;7.30;100.00;99527.50;5092184;28;19928;-69
2021/04/29 02:46:14;;;;;;;;;;;;;;;7.27;100.00;99523.22;5091820;28;20458;-69
2021/04/29 02:48:41;;;;;;;;;;;;;;;7.24;100.00;99525.31;5091652;28;19970;-69
2021/04/29 02:51:07;;;;;;;;;;;;;;;7.24;100.00;99512.69;5092185;28;20341;-69
2021/04/29 02:53:34;;;;;;;;;;;;;;;7.19;100.00;99510.38;5091951;28;19993;-69
2021/04/29 02:56:00;;;;;;;;;;;;;;;7.23;100.00;99515.50;5091855;28;19924;-69
2021/04/29 02:58:26;;;;;;;;;;;;;;;7.21;100.00;99510.25;5092056;28;20359;-69
2021/04/29 03:00:54;;;;;;;;;;;;;;;7.17;100.00;99506.94;5074074;28;20357;-69
2021/04/29 03:03:19;;;;;;;;;;;;;;;7.19;100.00;99510.38;5074011;28;20275;-69
2021/04/29 03:05:45;;;;;;;;;;;;;;;7.18;100.00;99519.47;5092152;28;19924;-69
2021/04/29 03:08:11;;;;;;;;;;;;;;;7.19;100.00;99510.38;5092094;28;19924;-69
2021/04/29 03:10:38;;;;;;;;;;;;;;;7.19;100.00;99501.44;5091886;28;19947;-69
2021/04/29 03:13:04;;;;;;;;;;;;;;;7.19;100.00;99507.69;5091660;28;19978;-69
2021/04/29 03:15:29;;;;;;;;;;;;;;;7.23;100.00;99504.72;5091886;28;19925;-69
2021/04/29 03:17:55;;;;;;;;;;;;;;;7.24;100.00;99501.03;5074204;28;19956;-69
2021/04/29 03:20:21;;;;;;;;;;;;;;;7.25;100.00;99503.59;5092298;28;20299;-69
2021/04/29 03:22:47;;;;;;;;;;;;;;;7.28;100.00;99510.56;5073958;28;20010;-69
2021/04/29 03:25:13;;;;;;;;;;;;;;;7.33;100.00;99508.34;5073467;28;19924;-69
2021/04/29 03:27:40;;;;;;;;;;;;;;;7.34;100.00;99508.19;5091555;28;19955;-69
2021/04/29 03:30:06;;;;;;;;;;;;;;;7.37;100.00;99498.97;5091811;28;20021;-67
2021/04/29 03:32:32;;;;;;;;;;;;;;;7.33;100.00;99494.84;5091675;28;19928;-67
2021/04/29 03:34:58;;;;;;;;;;;;;;;7.32;100.00;99499.38;5091867;28;19924;-68
2021/04/29 03:37:23;;;;;;;;;;;;;;;7.29;100.00;99496.94;5091467;28;19931;-68
2021/04/29 03:39:49;;;;;;;;;;;;;;;7.27;100.00;99490.84;5091743;28;20065;-68
2021/04/29 03:42:16;;;;;;;;;;;;;;;7.29;100.00;99488.00;5091390;28;19977;-68
2021/04/29 03:44:43;;;;;;;;;;;;;;;7.26;100.00;99491.81;5091532;28;20019;-67
2021/04/29 03:47:09;;;;;;;;;;;;;;;7.25;100.00;99492.81;5073300;28;19974;-67
2021/04/29 03:49:34;;;;;;;;;;;;;;;7.27;100.00;99498.94;5091724;28;19928;-68
2021/04/29 03:52:00;;;;;;;;;;;;;;;7.31;100.00;99494.09;5091601;28;19946;-68
2021/04/29 03:54:26;;;;;;;;;;;;;;;7.31;100.00;99492.28;5091278;28;20531;-68
2021/04/29 03:56:53;;;;;;;;;;;;;;;7.34;100.00;99493.84;5091413;28;19971;-68
2021/04/29 03:59:18;;;;;;;;;;;;;;;7.38;100.00;99503.41;5073026;28;20384;-68
2021/04/29 04:01:45;;;;;;;;;;;;;;;7.40;100.00;99509.50;5073362;28;19932;-68
2021/04/29 04:04:11;;;;;;;;;;;;;;;7.45;100.00;99509.97;5090496;28;19932;-68
2021/04/29 04:06:37;;;;;;;;;;;;;;;7.47;100.00;99523.31;5091146;28;19935;-67
2021/04/29 04:09:03;;;;;;;;;;;;;;;7.49;100.00;99524.91;5091107;28;20313;-67
2021/04/29 04:11:29;;;;;;;;;;;;;;;7.52;100.00;99524.66;5090987;28;19931;-67
2021/04/29 04:13:55;;;;;;;;;;;;;;;7.58;100.00;99525.09;5091113;28;19928;-67
2021/04/29 04:16:21;;;;;;;;;;;;;;;7.56;100.00;99511.72;5090014;28;20349;-67
2021/04/29 04:18:48;;;;;;;;;;;;;;;7.58;100.00;99517.00;5091096;28;19963;-67
2021/04/29 04:21:14;;;;;;;;;;;;;;;7.57;100.00;99508.03;5090466;28;19964;-68
2021/04/29 04:23:40;;;;;;;;;;;;;;;7.62;100.00;99507.63;5090849;28;19924;-68
2021/04/29 04:26:05;;;;;;;;;;;;;;;7.64;100.00;99500.25;5090473;28;20418;-68
2021/04/29 04:28:31;;;;;;;;;;;;;;;7.63;100.00;99491.28;5090405;28;20034;-68
2021/04/29 04:30:57;;;;;;;;;;;;;;;7.65;100.00;99496.56;5090805;28;19947;-68
2021/04/29 04:33:23;;;;;;;;;;;;;;;7.68;100.00;99493.56;5090333;28;19988;-67
2021/04/29 04:35:49;;;;;;;;;;;;;;;7.71;100.00;99475.25;5090114;28;20383;-68
2021/04/29 04:38:15;;;;;;;;;;;;;;;7.77;100.00;99464.91;5090681;28;19936;-67
2021/04/29 04:40:41;;;;;;;;;;;;;;;7.78;100.00;99489.06;5090573;28;19928;-67
2021/04/29 04:43:07;;;;;;;;;;;;;;;7.80;100.00;99513.25;5072633;28;19942;-67
2021/04/29 04:45:33;;;;;;;;;;;;;;;7.82;100.00;99509.41;5090709;28;19924;-67
2021/04/29 04:47:58;;;;;;;;;;;;;;;7.81;100.00;99526.59;5090684;28;19924;-68
2021/04/29 04:50:24;;;;;;;;;;;;;;;7.87;100.00;99519.81;5090650;28;19924;-68
2021/04/29 04:52:51;;;;;;;;;;;;;;;7.91;100.00;99514.97;5090571;28;19927;-68
2021/04/29 04:55:17;;;;;;;;;;;;;;;7.92;100.00;99505.88;5071580;28;19986;-68
2021/04/29 04:57:43;;;;;;;;;;;;;;;7.96;100.00;99485.72;5072637;28;19924;-68
2021/04/29 05:00:09;;;;;;;;;;;;;;;7.93;100.00;99480.59;5090692;28;20439;-68
2021/04/29 05:02:37;;;;;;;;;;;;;;;7.86;100.00;99481.13;5090329;28;20299;-68
2021/04/29 05:05:04;;;;;;;;;;;;;;;7.84;100.00;99471.44;5090086;28;19986;-68
2021/04/29 05:07:30;;;;;;;;;;;;;;;7.81;100.00;99453.66;5090284;28;19963;-68
2021/04/29 05:09:57;;;;;;;;;;;;;;;7.77;100.00;99454.94;5090424;28;19924;-67
2021/04/29 05:12:23;;;;;;;;;;;;;;;7.72;100.00;99438.28;5094279;28;20184;-68
2021/04/29 05:14:48;;;;;;;;;;;;;;;7.69;100.00;99436.72;5093824;28;19931;-68
2021/04/29 05:17:14;;;;;;;;;;;;;;;7.67;100.00;99436.00;5076342;28;19928;-68
2021/04/29 05:19:40;;;;;;;;;;;;;;;7.69;100.00;99431.31;5092065;28;19924;-68
2021/04/29 05:22:06;;;;;;;;;;;;;;;7.70;100.00;99429.47;5089017;28;19931;-68
2021/04/29 05:24:32;;;;;;;;;;;;;;;7.70;100.00;99411.41;5093519;28;19947;-67
2021/04/29 05:26:58;;;;;;;;;;;;;;;7.73;100.00;99421.09;5089527;28;20402;-68
2021/04/29 05:29:26;;;;;;;;;;;;;;;7.74;100.00;99459.75;5091262;28;19955;-68
2021/04/29 05:31:52;;;;;;;;;;;;;;;7.71;100.00;99480.66;5093983;28;19970;-68
2021/04/29 05:34:17;;;;;;;;;;;;;;;7.83;100.00;99484.13;5094224;28;19955;-68
2021/04/29 05:36:43;;;;;;;;;;;;;;;7.95;100.00;99482.16;5093216;28;20324;-69
2021/04/29 05:39:09;;;;;;;;;;;;;;;8.07;100.00;99495.53;5093389;28;19924;-67
2021/04/29 05:41:35;;;;;;;;;;;;;;;8.17;100.00;99499.97;5093416;28;19995;-67
2021/04/29 05:44:01;;;;;;;;;;;;;;;8.27;100.00;99497.31;5093463;28;19932;-67
2021/04/29 05:46:27;;;;;;;;;;;;;;;8.37;100.00;99489.19;5092038;28;19924;-68
2021/04/29 05:48:53;;;;;;;;;;;;;;;8.45;100.00;99485.78;5080050;28;20341;-68
2021/04/29 05:51:19;;;;;;;;;;;;;;;8.53;100.00;99489.53;5092979;28;19978;-68
2021/04/29 05:53:45;;;;;;;;;;;;;;;8.62;100.00;99486.94;5092918;28;19935;-67
2021/04/29 05:56:11;;;;;;;;;;;;;;;8.66;100.00;99496.53;5092533;28;20426;-65
2021/04/29 05:58:36;;;;;;;;;;;;;;;8.70;100.00;99495.25;5092375;28;19928;-65
2021/04/29 06:01:03;;;;;;;;;;;;;;;8.68;100.00;99494.50;5093171;28;19924;-65
2021/04/29 06:03:29;;;;;;;;;;;;;;;8.74;100.00;99490.38;5074267;28;20316;-65
2021/04/29 06:05:55;;;;;;;;;;;;;;;8.75;100.00;99487.53;5092793;28;19981;-65
2021/04/29 06:08:20;;;;;;;;;;;;;;;8.71;100.00;99491.50;5092943;28;19959;-64
2021/04/29 06:10:46;;;;;;;;;;;;;;;8.78;100.00;99489.09;5092942;28;19924;-64
2021/04/29 06:13:12;;;;;;;;;;;;;;;8.81;100.00;99486.13;5092312;28;20361;-64
2021/04/29 06:15:38;;;;;;;;;;;;;;;8.85;100.00;99480.25;5092837;28;19924;-65
2021/04/29 06:18:05;;;;;;;;;;;;;;;8.87;100.00;99485.53;5092396;28;19946;-64
2021/04/29 06:20:31;;;;;;;;;;;;;;;8.82;100.00;99488.66;5092751;28;19966;-66
2021/04/29 06:22:56;;;;;;;;;;;;;;;8.82;100.00;99477.00;5092330;28;19924;-66
2021/04/29 06:25:23;;;;;;;;;;;;;;;8.81;100.00;99476.13;5074128;28;19928;-64
2021/04/29 06:27:49;;;;;;;;;;;;;;;8.84;100.00;99481.25;5092422;28;20389;-64
2021/04/29 06:30:15;;;;;;;;;;;;;;;8.79;100.00;99483.56;5092432;28;19927;-64
2021/04/29 06:32:42;;;;;;;;;;;;;;;8.81;100.00;99484.25;5091883;28;20008;-65
2021/04/29 06:35:10;;;;;;;;;;;;;;;8.71;100.00;99486.97;5091437;28;19932;-66
2021/04/29 06:37:35;;;;;;;;;;;;;;;8.65;100.00;99476.72;5092163;28;19931;-65
2021/04/29 06:40:01;;;;;;;;;;;;;;;8.73;100.00;99478.72;5092072;28;19924;-65
2021/04/29 06:42:27;;;;;;;;;;;;;;;8.83;100.00;99476.84;5091638;28;20027;-65
2021/04/29 06:44:53;;;;;;;;;;;;;;;8.97;100.00;99472.00;5092063;28;20038;-65
2021/04/29 06:47:21;;;;;;;;;;;;;;;9.12;100.00;99472.38;5091235;28;19928;-65
2021/04/29 06:49:47;;;;;;;;;;;;;;;9.23;100.00;99479.50;5091894;28;19959;-65
2021/04/29 06:52:16;;;;;;;;;;;;;;;9.15;100.00;99478.38;5083641;28;19931;-65
2021/04/29 06:54:42;;;;;;;;;;;;;;;9.08;100.00;99479.94;5091608;28;20022;-66
2021/04/29 06:57:08;;;;;;;;;;;;;;;9.01;100.00;99478.81;5089852;28;20053;-67
2021/04/29 06:59:34;;;;;;;;;;;;;;;8.88;100.00;99477.28;5083653;28;20444;-65
2021/04/29 07:02:00;;;;;;;;;;;;;;;8.78;100.00;99481.84;5090041;28;19932;-64
2021/04/29 07:04:26;;;;;;;;;;;;;;;8.71;100.00;99483.41;5087371;28;19932;-65
2021/04/29 07:06:51;;;;;;;;;;;;;;;8.65;100.00;99482.13;5085691;28;19924;-65
2021/04/29 07:09:18;;;;;;;;;;;;;;;8.63;100.00;99473.31;5088568;28;19928;-65
2021/04/29 07:11:44;;;;;;;;;;;;;;;8.53;100.00;99481.41;5091019;28;19957;-65
2021/04/29 07:14:10;;;;;;;;;;;;;;;8.43;100.00;99494.06;5091031;28;20410;-65
2021/04/29 07:16:36;;;;;;;;;;;;;;;8.34;100.00;99490.34;5091440;28;20019;-65
2021/04/29 07:19:02;;;;;;;;;;;;;;;8.28;100.00;99492.75;5089866;28;19924;-65
2021/04/29 07:21:27;;;;;;;;;;;;;;;8.19;100.00;99491.72;5078106;28;20323;-65
2021/04/29 07:23:53;;;;;;;;;;;;;;;8.12;100.00;99501.38;5091350;28;19970;-65
2021/04/29 07:26:20;;;;;;;;;;;;;;;8.08;100.00;99503.50;5083105;28;20036;-66
2021/04/29 07:28:46;;;;;;;;;;;;;;;8.13;100.00;99512.06;5053473;28;19936;-64
2021/04/29 07:31:12;;;;;;;;;;;;;;;8.06;100.00;99500.09;5077718;28;20466;-65
2021/04/29 07:33:39;;;;;;;;;;;;;;;7.99;100.00;99507.91;5087915;28;20367;-65
2021/04/29 07:36:06;;;;;;;;;;;;;;;7.91;100.00;99504.19;5070586;28;20060;-65
2021/04/29 07:38:31;;;;;;;;;;;;;;;7.94;100.00;99512.03;5091188;28;19959;-65
2021/04/29 07:40:57;;;;;;;;;;;;;;;8.00;100.00;99503.34;5090064;28;19924;-65
2021/04/29 07:43:24;;;;;;;;;;;;;;;7.96;100.00;99496.50;5090247;28;19924;-65
2021/04/29 07:45:50;;;;;;;;;;;;;;;7.95;100.00;99502.91;5090055;28;20363;-65
2021/04/29 07:48:16;;;;;;;;;;;;;;;7.95;100.00;99497.50;5089127;28;19931;-65
2021/04/29 07:50:41;;;;;;;;;;;;;;;7.97;100.00;99500.94;5081481;28;19977;-64
2021/04/29 07:53:08;;;;;;;;;;;;;;;8.04;100.00;99502.94;5090465;28;19924;-65
2021/04/29 07:55:34;;;;;;;;;;;;;;;8.12;100.00;99515.75;5090385;28;19979;-64
2021/04/29 07:58:00;;;;;;;;;;;;;;;8.24;100.00;99507.53;5071570;28;19971;-65
2021/04/29 08:00:27;;;;;;;;;;;;;;;8.37;100.00;99505.41;5090642;28;19947;-65
2021/04/29 08:02:52;;;;;;;;;;;;;;;8.47;100.00;99495.50;5089291;28;20363;-65
2021/04/29 08:05:18;;;;;;;;;;;;;;;8.61;100.00;99490.69;5077318;28;19924;-65
2021/04/29 08:07:44;;;;;;;;;;;;;;;8.69;100.00;99488.13;5087695;28;19947;-65
2021/04/29 08:10:11;;;;;;;;;;;;;;;8.74;100.00;99490.38;5089998;28;20440;-64
2021/04/29 08:12:37;;;;;;;;;;;;;;;8.78;100.00;99495.38;5089692;28;20026;-64
2021/04/29 08:15:03;;;;;;;;;;;;;;;8.81;100.00;99484.25;5090166;28;19939;-65
2021/04/29 08:17:30;;;;;;;;;;;;;;;8.80;100.00;99482.53;5089100;28;19932;-65
2021/04/29 08:19:57;;;;;;;;;;;;;;;8.77;100.00;99490.09;5090690;28;20322;-65
2021/04/29 08:22:23;;;;;;;;;;;;;;;8.65;100.00;99503.75;5090326;28;20365;-65
2021/04/29 08:24:49;;;;;;;;;;;;;;;8.51;100.00;99499.63;5090154;28;19925;-65
2021/04/29 08:27:15;;;;;;;;;;;;;;;8.29;100.00;99505.28;5090117;28;19928;-65
2021/04/29 08:29:41;;;;;;;;;;;;;;;8.21;100.00;99505.97;5089999;28;19924;-65
2021/04/29 08:32:06;;;;;;;;;;;;;;;8.14;100.00;99504.81;5086369;28;19976;-65
2021/04/29 08:34:33;;;;;;;;;;;;;;;8.09;100.00;99507.94;5090315;28;19971;-66
2021/04/29 08:36:59;;;;;;;;;;;;;;;8.07;100.00;99501.81;5071683;28;19959;-66
2021/04/29 08:39:25;;;;;;;;;;;;;;;8.12;100.00;99493.28;5088537;28;19925;-66
2021/04/29 08:41:51;;;;;;;;;;;;;;;8.16;100.00;99497.41;5089658;28;20396;-66
2021/04/29 08:44:17;;;;;;;;;;;;;;;8.15;100.00;99507.38;5090062;28;19939;-66
2021/04/29 08:46:42;;;;;;;;;;;;;;;8.16;100.00;99509.09;5070925;28;19924;-66
2021/04/29 08:49:08;;;;;;;;;;;;;;;8.19;100.00;99489.88;5088506;28;20030;-65
2021/04/29 08:51:36;;;;;;;;;;;;;;;8.19;100.00;99492.59;5092630;28;19924;-66
2021/04/29 08:54:02;;;;;;;;;;;;;;;8.26;100.00;99497.41;5093410;28;20007;-65
2021/04/29 08:56:28;;;;;;;;;;;;;;;8.29;100.00;99486.34;5075938;28;20407;-65
2021/04/29 08:58:54;;;;;;;;;;;;;;;8.29;100.00;99483.66;5094246;28;19924;-64
2021/04/29 09:01:20;;;;;;;;;;;;;;;8.34;100.00;99482.22;5094286;28;19962;-65
2021/04/29 09:03:47;;;;;;;;;;;;;;;8.36;100.00;99479.38;5093163;28;19997;-65
2021/04/29 09:06:12;;;;;;;;;;;;;;;8.37;100.00;99472.97;5091807;28;20343;-64
2021/04/29 09:08:40;;;;;;;;;;;;;;;8.37;100.00;99473.81;5093675;28;19986;-64
2021/04/29 09:11:07;;;;;;;;;;;;;;;8.38;100.00;99478.25;5092518;28;20027;-65
2021/04/29 09:13:33;;;;;;;;;;;;;;;8.45;100.00;99469.56;5091096;28;19924;-65
2021/04/29 09:16:04;;;;;;;;;;;;;;;8.45;100.00;99466.88;5093700;28;20004;-68
2021/04/29 09:18:31;;;;;;;;;;;;;;;8.48;100.00;99474.72;5075374;28;20031;-64
2021/04/29 09:20:57;;;;;;;;;;;;;;;8.54;100.00;99475.00;5089172;28;19952;-65
2021/04/29 09:23:24;;;;;;;;;;;;;;;8.48;100.00;99472.84;5091613;28;19928;-65
2021/04/29 09:25:55;;;;;;;;;;;;;;;8.42;100.00;99489.63;5074567;28;19930;-65
2021/04/29 09:28:20;;;;;;;;;;;;;;;8.28;100.00;99485.47;5093720;28;19973;-65
2021/04/29 09:30:46;;;;;;;;;;;;;;;8.28;100.00;99490.88;5093380;28;19928;-65
2021/04/29 09:33:12;;;;;;;;;;;;;;;8.30;100.00;99488.06;5093203;28;19924;-65
2021/04/29 09:35:39;;;;;;;;;;;;;;;8.36;100.00;99484.78;5092820;28;19931;-65
2021/04/29 09:38:09;;;;;;;;;;;;;;;8.41;100.00;99482.50;5092471;28;20371;-65
2021/04/29 09:40:38;;;;;;;;;;;;;;;8.48;100.00;99480.97;5092940;28;20297;-65
2021/04/29 09:43:07;;;;;;;;;;;;;;;8.50;100.00;99470.88;5092963;28;19925;-65
2021/04/29 09:45:34;;;;;;;;;;;;;;;8.55;100.00;99475.84;5093370;28;19924;-65
2021/04/29 09:48:01;;;;;;;;;;;;;;;8.57;100.00;99478.44;5092875;28;20288;-65
2021/04/29 09:50:28;;;;;;;;;;;;;;;8.60;100.00;99478.97;5092025;28;19935;-65
2021/04/29 09:53:01;;;;;;;;;;;;;;;8.69;100.00;99474.59;5092921;28;19931;-65
2021/04/29 09:55:27;;;;;;;;;;;;;;;8.87;100.00;99466.56;5092848;28;19924;-65
2021/04/29 09:58:15;;;;;;;;;;;;;;;9.06;100.00;99463.00;5092241;28;19924;-63
2021/04/29 10:00:42;;;;;;;;;;;;;;;9.13;100.00;99468.69;5089804;28;19924;-64
2021/04/29 10:03:08;;;;;;;;;;;;;;;9.19;100.00;99460.84;5092081;28;19924;-65
2021/04/29 10:05:38;;;;;;;;;;;;;;;9.35;100.00;99453.94;5092515;28;19935;-65
2021/04/29 10:08:07;;;;;;;;;;;;;;;9.65;100.00;99460.09;5092056;28;19924;-65
2021/04/29 10:10:35;;;;;;;;;;;;;;;9.81;100.00;99457.59;5092450;28;19924;-65
2021/04/29 10:13:02;;;;;;;;;;;;;;;10.10;100.00;99451.16;5092510;28;19927;-65
2021/04/29 10:15:31;;;;;;;;;;;;;;;10.36;100.00;99455.84;5091648;28;19928;-65
2021/04/29 10:17:57;;;;;;;;;;;;;;;10.32;100.00;99444.41;5077022;28;19924;-66
2021/04/29 10:20:23;;;;;;;;;;;;;;;10.62;100.00;99436.06;5092100;28;19956;-65
2021/04/29 10:22:49;;;;;;;;;;;;;;;10.81;100.00;99435.03;5092217;28;19924;-65
2021/04/29 10:25:25;;;;;;;;;;;;;;;11.02;100.00;99442.81;5091924;28;19928;-65
2021/04/29 10:27:54;;;;;;;;;;;;;;;10.95;100.00;99437.19;5092807;28;20023;-65
2021/04/29 10:30:20;;;;;;;;;;;;;;;11.19;100.00;99436.50;5091750;28;19928;-65
2021/04/29 10:32:47;;;;;;;;;;;;;;;11.09;100.00;99433.06;5091961;28;20034;-65
2021/04/29 10:35:14;;;;;;;;;;;;;;;11.08;100.00;99439.50;5090864;28;19967;-65
2021/04/29 10:37:40;;;;;;;;;;;;;;;11.15;100.00;99447.84;5092069;28;19971;-65
2021/04/29 10:40:08;;;;;;;;;;;;;;;11.00;100.00;99437.56;5092354;28;19928;-64
2021/04/29 10:42:43;;;;;;;;;;;;;;;10.88;100.00;99439.69;5091993;28;20023;-65
2021/04/29 10:45:10;;;;;;;;;;;;;;;10.79;100.00;99435.19;5091639;28;19924;-65
2021/04/29 10:47:37;;;;;;;;;;;;;;;10.72;100.00;99445.81;5091393;28;20421;-65
2021/04/29 10:50:07;;;;;;;;;;;;;;;10.69;100.00;99443.44;5091756;28;19971;-65
2021/04/29 10:52:45;;;;;;;;;;;;;;;10.77;100.00;99458.94;5091168;28;20384;-65
2021/04/29 10:55:21;;;;;;;;;;;;;;;10.86;100.00;99460.72;5083782;28;19928;-65
2021/04/29 10:57:47;;;;;;;;;;;;;;;11.02;100.00;99454.56;5073819;28;20023;-66
2021/04/29 11:00:14;;;;;;;;;;;;;;;11.13;100.00;99455.28;5091775;28;20295;-66
2021/04/29 11:02:40;;;;;;;;;;;;;;;11.31;100.00;99449.81;5091773;28;19924;-66
2021/04/29 11:05:08;;;;;;;;;;;;;;;11.51;100.00;99445.00;5091462;28;19928;-67
2021/04/29 11:07:44;;;;;;;;;;;;;;;11.81;100.00;99453.63;5091434;28;20017;-66
2021/04/29 11:10:11;;;;;;;;;;;;;;;12.36;100.00;99438.72;5091675;28;19924;-66
2021/04/29 11:12:40;;;;;;;;;;;;;;;12.80;100.00;99441.13;5091818;28;20016;-67
2021/04/29 11:15:17;;;;;;;;;;;;;;;13.23;100.00;99430.00;5091619;28;19935;-67
2021/04/29 11:17:44;;;;;;;;;;;;;;;13.92;100.00;99423.97;5092047;28;20445;-67
2021/04/29 11:20:12;;;;;;;;;;;;;;;13.76;100.00;99418.59;5073612;28;19924;-67
2021/04/29 11:22:38;;;;;;;;;;;;;;;13.65;100.00;99423.41;5073569;28;20279;-67
2021/04/29 11:25:07;;;;;;;;;;;;;;;13.89;100.00;99429.78;5091568;28;20383;-67
2021/04/29 11:27:34;;;;;;;;;;;;;;;13.91;100.00;99427.75;5090989;28;19948;-67
2021/04/29 11:30:02;;;;;;;;;;;;;;;14.01;100.00;99427.53;5091732;28;20345;-68
2021/04/29 11:32:29;;;;;;;;;;;;;;;14.15;100.00;99426.78;5091379;28;20341;-67
2021/04/29 11:34:55;;;;;;;;;;;;;;;14.31;100.00;99427.69;5072726;28;20022;-67
2021/04/29 11:37:22;;;;;;;;;;;;;;;14.30;100.00;99421.38;5073199;28;19967;-68
2021/04/29 11:40:01;;;;;;;;;;;;;;;14.31;100.00;99422.22;5072676;28;20395;-68
2021/04/29 11:42:29;;;;;;;;;;;;;;;14.18;100.00;99425.56;5090109;28;19977;-68
2021/04/29 11:45:05;;;;;;;;;;;;;;;13.86;100.00;99425.53;5090528;28;19928;-68
2021/04/29 11:47:30;;;;;;;;;;;;;;;13.56;100.00;99441.69;5091322;28;19966;-68
2021/04/29 11:49:56;;;;;;;;;;;;;;;13.56;100.00;99435.38;5091330;28;19928;-66
2021/04/29 11:52:24;;;;;;;;;;;;;;;13.88;100.00;99450.78;5090692;28;20400;-66
2021/04/29 11:54:50;;;;;;;;;;;;;;;14.02;100.00;99440.97;5090908;28;19924;-66
2021/04/29 11:57:16;;;;;;;;;;;;;;;14.73;100.00;99431.84;5090651;28;20430;-67
2021/04/29 11:59:42;;;;;;;;;;;;;;;15.16;100.00;99429.41;5091014;28;19924;-67
2021/04/29 12:02:12;;;;;;;;;;;;;;;14.90;100.00;99444.34;5072618;28;19963;-67
2021/04/29 12:04:42;;;;;;;;;;;;;;;15.29;100.00;99436.97;5090432;28;20023;-67
2021/04/29 12:07:08;;;;;;;;;;;;;;;14.79;100.00;99446.66;5090938;28;19928;-67
2021/04/29 12:09:34;;;;;;;;;;;;;;;14.43;100.00;99445.38;5073221;28;19978;-66
2021/04/29 12:12:08;;;;;;;;;;;;;;;14.06;100.00;99457.84;5090769;28;19924;-66
2021/04/29 12:14:34;;;;;;;;;;;;;;;13.88;100.00;99460.81;5056195;28;19924;-67
2021/04/29 12:17:01;;;;;;;;;;;;;;;13.93;100.00;99466.59;5091009;28;19966;-69
2021/04/29 12:19:28;;;;;;;;;;;;;;;13.89;100.00;99465.25;5073519;28;19931;-66
2021/04/29 12:21:54;;;;;;;;;;;;;;;13.85;100.00;99455.72;5095121;28;19924;-68
2021/04/29 12:24:20;;;;;;;;;;;;;;;14.87;100.00;99450.19;5094983;28;19982;-66
2021/04/29 12:26:47;;;;;;;;;;;;;;;15.55;100.00;99446.59;5094600;28;20383;-67
2021/04/29 12:29:14;;;;;;;;;;;;;;;16.07;100.00;99439.31;5093741;28;19931;-67
2021/04/29 12:31:51;;;;;;;;;;;;;;;15.64;100.00;99429.06;5089656;28;19963;-68
2021/04/29 12:34:18;;;;;;;;;;;;;;;15.88;100.00;99458.03;5055724;28;20309;-67
2021/04/29 12:36:48;;;;;;;;;;;;;;;15.96;100.00;99448.88;5074372;28;19928;-67
2021/04/29 12:39:15;;;;;;;;;;;;;;;16.26;100.00;99450.69;5074505;28;19924;-66
2021/04/29 12:41:42;;;;;;;;;;;;;;;16.06;100.00;99460.38;5074508;28;19924;-67
2021/04/29 12:44:09;;;;;;;;;;;;;;;15.37;100.00;99449.72;5074292;28;19932;-70